sensor_id;sensor_type;location;lat;lon;timestamp;temperature;humidity
65239;SHT30;51827;51.186;6.926;2023-03-31T00:00:29;19.45;54.42
65239;SHT30;51827;51.186;6.926;2023-03-31T00:01:30;19.43;54.42
65239;SHT30;51827;51.186;6.926;2023-03-31T00:02:30;19.42;54.40
65239;SHT30;51827;51.186;6.926;2023-03-31T00:03:31;19.45;54.44
65239;SHT30;51827;51.186;6.926;2023-03-31T00:04:31;19.43;54.41
65239;SHT30;51827;51.186;6.926;2023-03-31T00:05:35;19.43;54.44
65239;SHT30;51827;51.186;6.926;2023-03-31T00:06:36;19.45;54.44
65239;SHT30;51827;51.186;6.926;2023-03-31T00:07:36;19.43;54.40
65239;SHT30;51827;51.186;6.926;2023-03-31T00:08:37;19.43;54.41
65239;SHT30;51827;51.186;6.926;2023-03-31T00:09:37;19.45;54.38
65239;SHT30;51827;51.186;6.926;2023-03-31T00:10:43;19.43;54.42
65239;SHT30;51827;51.186;6.926;2023-03-31T00:11:44;19.43;54.41
65239;SHT30;51827;51.186;6.926;2023-03-31T00:12:45;19.45;54.41
65239;SHT30;51827;51.186;6.926;2023-03-31T00:13:45;19.42;54.38
65239;SHT30;51827;51.186;6.926;2023-03-31T00:14:46;19.43;54.37
65239;SHT30;51827;51.186;6.926;2023-03-31T00:15:46;19.45;54.41
65239;SHT30;51827;51.186;6.926;2023-03-31T00:16:47;19.43;54.35
65239;SHT30;51827;51.186;6.926;2023-03-31T00:17:47;19.42;54.38
65239;SHT30;51827;51.186;6.926;2023-03-31T00:18:47;19.43;54.37
65239;SHT30;51827;51.186;6.926;2023-03-31T00:19:48;19.40;54.35
65239;SHT30;51827;51.186;6.926;2023-03-31T00:20:48;19.43;54.37
65239;SHT30;51827;51.186;6.926;2023-03-31T00:21:49;19.40;54.38
65239;SHT30;51827;51.186;6.926;2023-03-31T00:22:49;19.40;54.40
65239;SHT30;51827;51.186;6.926;2023-03-31T00:23:52;19.45;54.37
65239;SHT30;51827;51.186;6.926;2023-03-31T00:24:52;19.42;54.42
65239;SHT30;51827;51.186;6.926;2023-03-31T00:25:54;19.43;54.36
65239;SHT30;51827;51.186;6.926;2023-03-31T00:26:54;19.40;54.34
65239;SHT30;51827;51.186;6.926;2023-03-31T00:27:54;19.42;54.34
65239;SHT30;51827;51.186;6.926;2023-03-31T00:28:55;19.42;54.36
65239;SHT30;51827;51.186;6.926;2023-03-31T00:29:55;19.40;54.33
65239;SHT30;51827;51.186;6.926;2023-03-31T00:30:59;19.42;54.33
65239;SHT30;51827;51.186;6.926;2023-03-31T00:31:59;19.40;54.36
65239;SHT30;51827;51.186;6.926;2023-03-31T00:33:00;19.42;54.39
65239;SHT30;51827;51.186;6.926;2023-03-31T00:34:00;19.40;54.36
65239;SHT30;51827;51.186;6.926;2023-03-31T00:35:01;19.42;54.36
65239;SHT30;51827;51.186;6.926;2023-03-31T00:36:01;19.40;54.31
65239;SHT30;51827;51.186;6.926;2023-03-31T00:37:02;19.40;54.33
65239;SHT30;51827;51.186;6.926;2023-03-31T00:38:02;19.42;54.33
65239;SHT30;51827;51.186;6.926;2023-03-31T00:39:04;19.43;54.34
65239;SHT30;51827;51.186;6.926;2023-03-31T00:40:05;19.42;54.34
65239;SHT30;51827;51.186;6.926;2023-03-31T00:41:06;19.42;54.33
65239;SHT30;51827;51.186;6.926;2023-03-31T00:42:08;19.40;54.29
65239;SHT30;51827;51.186;6.926;2023-03-31T00:43:38;19.42;54.35
65239;SHT30;51827;51.186;6.926;2023-03-31T00:46:22;19.42;54.33
65239;SHT30;51827;51.186;6.926;2023-03-31T00:47:25;19.40;54.28
65239;SHT30;51827;51.186;6.926;2023-03-31T00:48:26;19.37;54.36
65239;SHT30;51827;51.186;6.926;2023-03-31T00:50:51;19.39;54.33
65239;SHT30;51827;51.186;6.926;2023-03-31T00:51:57;19.39;54.32
65239;SHT30;51827;51.186;6.926;2023-03-31T00:53:07;19.39;54.33
65239;SHT30;51827;51.186;6.926;2023-03-31T00:54:09;19.40;54.33
65239;SHT30;51827;51.186;6.926;2023-03-31T00:55:13;19.40;54.34
65239;SHT30;51827;51.186;6.926;2023-03-31T00:56:16;19.40;54.29
65239;SHT30;51827;51.186;6.926;2023-03-31T00:57:16;19.37;54.30
65239;SHT30;51827;51.186;6.926;2023-03-31T00:58:18;19.39;54.33
65239;SHT30;51827;51.186;6.926;2023-03-31T00:59:19;19.37;54.36
65239;SHT30;51827;51.186;6.926;2023-03-31T01:00:22;19.39;54.35
65239;SHT30;51827;51.186;6.926;2023-03-31T01:01:22;19.39;54.35
65239;SHT30;51827;51.186;6.926;2023-03-31T01:02:23;19.39;54.38
65239;SHT30;51827;51.186;6.926;2023-03-31T01:03:24;19.39;54.31
65239;SHT30;51827;51.186;6.926;2023-03-31T01:04:24;19.40;54.31
65239;SHT30;51827;51.186;6.926;2023-03-31T01:06:28;19.37;54.36
65239;SHT30;51827;51.186;6.926;2023-03-31T01:07:33;19.37;54.31
65239;SHT30;51827;51.186;6.926;2023-03-31T01:08:36;19.40;54.31
65239;SHT30;51827;51.186;6.926;2023-03-31T01:09:37;19.39;54.37
65239;SHT30;51827;51.186;6.926;2023-03-31T01:10:40;19.39;54.31
65239;SHT30;51827;51.186;6.926;2023-03-31T01:11:44;19.40;54.35
65239;SHT30;51827;51.186;6.926;2023-03-31T01:12:48;19.39;54.34
65239;SHT30;51827;51.186;6.926;2023-03-31T01:13:50;19.39;54.33
65239;SHT30;51827;51.186;6.926;2023-03-31T01:14:52;19.36;54.33
65239;SHT30;51827;51.186;6.926;2023-03-31T01:15:53;19.37;54.32
65239;SHT30;51827;51.186;6.926;2023-03-31T01:16:53;19.39;54.33
65239;SHT30;51827;51.186;6.926;2023-03-31T01:17:53;19.37;54.32
65239;SHT30;51827;51.186;6.926;2023-03-31T01:18:54;19.39;54.32
65239;SHT30;51827;51.186;6.926;2023-03-31T01:20:22;19.39;54.33
65239;SHT30;51827;51.186;6.926;2023-03-31T01:27:49;19.37;54.37
65239;SHT30;51827;51.186;6.926;2023-03-31T01:28:58;19.36;54.34
65239;SHT30;51827;51.186;6.926;2023-03-31T01:31:54;19.37;54.40
65239;SHT30;51827;51.186;6.926;2023-03-31T01:39:00;19.36;54.43
65239;SHT30;51827;51.186;6.926;2023-03-31T01:43:02;19.36;54.65
65239;SHT30;51827;51.186;6.926;2023-03-31T01:48:12;19.34;54.64
65239;SHT30;51827;51.186;6.926;2023-03-31T01:49:22;19.34;54.67
65239;SHT30;51827;51.186;6.926;2023-03-31T01:51:34;19.34;54.69
65239;SHT30;51827;51.186;6.926;2023-03-31T01:54:14;19.37;54.69
65239;SHT30;51827;51.186;6.926;2023-03-31T01:56:31;19.36;54.65
65239;SHT30;51827;51.186;6.926;2023-03-31T01:57:35;19.36;54.69
65239;SHT30;51827;51.186;6.926;2023-03-31T01:58:41;19.34;54.70
65239;SHT30;51827;51.186;6.926;2023-03-31T02:00:08;19.36;54.71
65239;SHT30;51827;51.186;6.926;2023-03-31T02:01:30;19.36;54.72
65239;SHT30;51827;51.186;6.926;2023-03-31T02:02:36;19.34;54.71
65239;SHT30;51827;51.186;6.926;2023-03-31T02:03:42;19.34;54.70
65239;SHT30;51827;51.186;6.926;2023-03-31T02:04:53;19.34;54.67
65239;SHT30;51827;51.186;6.926;2023-03-31T02:05:58;19.36;54.71
65239;SHT30;51827;51.186;6.926;2023-03-31T02:07:08;19.37;54.73
65239;SHT30;51827;51.186;6.926;2023-03-31T02:08:13;19.36;54.75
65239;SHT30;51827;51.186;6.926;2023-03-31T02:09:19;19.37;54.73
65239;SHT30;51827;51.186;6.926;2023-03-31T02:10:22;19.34;54.74
65239;SHT30;51827;51.186;6.926;2023-03-31T02:11:24;19.36;54.73
65239;SHT30;51827;51.186;6.926;2023-03-31T02:12:30;19.36;54.79
65239;SHT30;51827;51.186;6.926;2023-03-31T02:13:31;19.34;54.74
65239;SHT30;51827;51.186;6.926;2023-03-31T02:14:34;19.37;54.74
65239;SHT30;51827;51.186;6.926;2023-03-31T02:15:38;19.36;54.73
65239;SHT30;51827;51.186;6.926;2023-03-31T02:16:41;19.34;54.73
65239;SHT30;51827;51.186;6.926;2023-03-31T02:17:45;19.37;54.76
65239;SHT30;51827;51.186;6.926;2023-03-31T02:18:50;19.33;54.75
65239;SHT30;51827;51.186;6.926;2023-03-31T02:19:53;19.36;54.74
65239;SHT30;51827;51.186;6.926;2023-03-31T02:20:54;19.34;54.76
65239;SHT30;51827;51.186;6.926;2023-03-31T02:21:55;19.34;54.77
65239;SHT30;51827;51.186;6.926;2023-03-31T02:22:56;19.36;54.80
65239;SHT30;51827;51.186;6.926;2023-03-31T02:23:56;19.34;54.78
65239;SHT30;51827;51.186;6.926;2023-03-31T02:25:00;19.36;54.76
65239;SHT30;51827;51.186;6.926;2023-03-31T02:27:05;19.33;54.79
65239;SHT30;51827;51.186;6.926;2023-03-31T02:28:12;19.33;54.78
65239;SHT30;51827;51.186;6.926;2023-03-31T02:29:14;19.36;54.80
65239;SHT30;51827;51.186;6.926;2023-03-31T02:30:14;19.36;54.82
65239;SHT30;51827;51.186;6.926;2023-03-31T02:32:24;19.34;54.75
65239;SHT30;51827;51.186;6.926;2023-03-31T02:33:27;19.37;54.76
65239;SHT30;51827;51.186;6.926;2023-03-31T02:34:28;19.37;54.77
65239;SHT30;51827;51.186;6.926;2023-03-31T02:35:28;19.34;54.79
65239;SHT30;51827;51.186;6.926;2023-03-31T02:36:29;19.34;54.78
65239;SHT30;51827;51.186;6.926;2023-03-31T02:37:29;19.33;54.79
65239;SHT30;51827;51.186;6.926;2023-03-31T02:38:42;19.34;54.78
65239;SHT30;51827;51.186;6.926;2023-03-31T02:39:47;19.36;54.75
65239;SHT30;51827;51.186;6.926;2023-03-31T02:40:47;19.34;54.80
65239;SHT30;51827;51.186;6.926;2023-03-31T02:41:48;19.36;54.79
65239;SHT30;51827;51.186;6.926;2023-03-31T02:42:48;19.36;54.77
65239;SHT30;51827;51.186;6.926;2023-03-31T02:43:49;19.34;54.81
65239;SHT30;51827;51.186;6.926;2023-03-31T02:44:49;19.39;54.77
65239;SHT30;51827;51.186;6.926;2023-03-31T02:45:50;19.34;54.74
65239;SHT30;51827;51.186;6.926;2023-03-31T02:46:50;19.36;54.75
65239;SHT30;51827;51.186;6.926;2023-03-31T02:47:51;19.37;54.77
65239;SHT30;51827;51.186;6.926;2023-03-31T02:48:54;19.34;54.76
65239;SHT30;51827;51.186;6.926;2023-03-31T02:49:58;19.36;54.78
65239;SHT30;51827;51.186;6.926;2023-03-31T02:52:51;19.37;54.78
65239;SHT30;51827;51.186;6.926;2023-03-31T02:56:36;19.37;54.81
65239;SHT30;51827;51.186;6.926;2023-03-31T02:58:07;19.34;54.80
65239;SHT30;51827;51.186;6.926;2023-03-31T02:59:46;19.36;54.80
65239;SHT30;51827;51.186;6.926;2023-03-31T03:01:05;19.36;54.84
65239;SHT30;51827;51.186;6.926;2023-03-31T03:02:18;19.34;54.80
65239;SHT30;51827;51.186;6.926;2023-03-31T03:03:41;19.34;54.84
65239;SHT30;51827;51.186;6.926;2023-03-31T03:05:11;19.34;54.84
65239;SHT30;51827;51.186;6.926;2023-03-31T03:09:44;19.32;54.86
65239;SHT30;51827;51.186;6.926;2023-03-31T03:12:38;19.33;54.86
65239;SHT30;51827;51.186;6.926;2023-03-31T03:13:51;19.33;54.88
65239;SHT30;51827;51.186;6.926;2023-03-31T03:16:17;19.34;54.89
65239;SHT30;51827;51.186;6.926;2023-03-31T03:17:22;19.36;54.87
65239;SHT30;51827;51.186;6.926;2023-03-31T03:18:24;19.33;54.88
65239;SHT30;51827;51.186;6.926;2023-03-31T03:19:25;19.32;54.87
65239;SHT30;51827;51.186;6.926;2023-03-31T03:20:25;19.34;54.89
65239;SHT30;51827;51.186;6.926;2023-03-31T03:21:26;19.33;54.86
65239;SHT30;51827;51.186;6.926;2023-03-31T03:22:26;19.34;54.87
65239;SHT30;51827;51.186;6.926;2023-03-31T03:23:27;19.33;54.82
65239;SHT30;51827;51.186;6.926;2023-03-31T03:24:27;19.34;54.87
65239;SHT30;51827;51.186;6.926;2023-03-31T03:25:27;19.33;54.84
65239;SHT30;51827;51.186;6.926;2023-03-31T03:26:28;19.34;54.86
65239;SHT30;51827;51.186;6.926;2023-03-31T03:27:28;19.33;54.84
65239;SHT30;51827;51.186;6.926;2023-03-31T03:28:28;19.33;54.86
65239;SHT30;51827;51.186;6.926;2023-03-31T03:29:28;19.34;54.86
65239;SHT30;51827;51.186;6.926;2023-03-31T03:30:29;19.34;54.86
65239;SHT30;51827;51.186;6.926;2023-03-31T03:31:29;19.36;54.82
65239;SHT30;51827;51.186;6.926;2023-03-31T03:32:29;19.36;54.87
65239;SHT30;51827;51.186;6.926;2023-03-31T03:33:30;19.33;54.84
65239;SHT30;51827;51.186;6.926;2023-03-31T03:34:30;19.33;54.86
65239;SHT30;51827;51.186;6.926;2023-03-31T03:35:33;19.36;54.84
65239;SHT30;51827;51.186;6.926;2023-03-31T03:36:35;19.33;54.88
65239;SHT30;51827;51.186;6.926;2023-03-31T03:37:35;19.34;54.88
65239;SHT30;51827;51.186;6.926;2023-03-31T03:38:36;19.36;54.88
65239;SHT30;51827;51.186;6.926;2023-03-31T03:39:36;19.32;54.88
65239;SHT30;51827;51.186;6.926;2023-03-31T03:40:36;19.34;54.86
65239;SHT30;51827;51.186;6.926;2023-03-31T03:41:37;19.37;54.84
65239;SHT30;51827;51.186;6.926;2023-03-31T03:42:37;19.34;54.84
65239;SHT30;51827;51.186;6.926;2023-03-31T03:43:37;19.33;54.82
65239;SHT30;51827;51.186;6.926;2023-03-31T03:44:37;19.34;54.90
65239;SHT30;51827;51.186;6.926;2023-03-31T03:45:38;19.33;54.88
65239;SHT30;51827;51.186;6.926;2023-03-31T03:46:38;19.34;54.82
65239;SHT30;51827;51.186;6.926;2023-03-31T03:47:38;19.34;54.81
65239;SHT30;51827;51.186;6.926;2023-03-31T03:48:38;19.34;54.82
65239;SHT30;51827;51.186;6.926;2023-03-31T03:49:39;19.36;54.81
65239;SHT30;51827;51.186;6.926;2023-03-31T03:50:39;19.34;54.87
65239;SHT30;51827;51.186;6.926;2023-03-31T03:51:39;19.34;54.80
65239;SHT30;51827;51.186;6.926;2023-03-31T03:52:39;19.34;54.81
65239;SHT30;51827;51.186;6.926;2023-03-31T03:53:40;19.34;54.85
65239;SHT30;51827;51.186;6.926;2023-03-31T03:54:40;19.33;54.82
65239;SHT30;51827;51.186;6.926;2023-03-31T03:55:40;19.36;54.85
65239;SHT30;51827;51.186;6.926;2023-03-31T03:56:41;19.33;54.86
65239;SHT30;51827;51.186;6.926;2023-03-31T03:57:41;19.34;54.88
65239;SHT30;51827;51.186;6.926;2023-03-31T03:58:41;19.37;54.97
65239;SHT30;51827;51.186;6.926;2023-03-31T03:59:41;19.39;54.89
65239;SHT30;51827;51.186;6.926;2023-03-31T04:00:42;19.37;54.91
65239;SHT30;51827;51.186;6.926;2023-03-31T04:01:42;19.36;54.89
65239;SHT30;51827;51.186;6.926;2023-03-31T04:02:42;19.37;54.94
65239;SHT30;51827;51.186;6.926;2023-03-31T04:03:43;19.37;54.92
65239;SHT30;51827;51.186;6.926;2023-03-31T04:04:44;19.36;54.94
65239;SHT30;51827;51.186;6.926;2023-03-31T04:05:46;19.34;54.93
65239;SHT30;51827;51.186;6.926;2023-03-31T04:06:46;19.34;54.89
65239;SHT30;51827;51.186;6.926;2023-03-31T04:07:46;19.36;54.93
65239;SHT30;51827;51.186;6.926;2023-03-31T04:08:47;19.33;54.92
65239;SHT30;51827;51.186;6.926;2023-03-31T04:09:47;19.33;54.96
65239;SHT30;51827;51.186;6.926;2023-03-31T04:10:48;19.37;54.89
65239;SHT30;51827;51.186;6.926;2023-03-31T04:11:48;19.36;54.87
65239;SHT30;51827;51.186;6.926;2023-03-31T04:12:49;19.36;54.85
65239;SHT30;51827;51.186;6.926;2023-03-31T04:13:49;19.34;54.85
65239;SHT30;51827;51.186;6.926;2023-03-31T04:14:49;19.36;54.84
65239;SHT30;51827;51.186;6.926;2023-03-31T04:15:49;19.36;54.82
65239;SHT30;51827;51.186;6.926;2023-03-31T04:16:50;19.36;54.83
65239;SHT30;51827;51.186;6.926;2023-03-31T04:17:50;19.36;54.81
65239;SHT30;51827;51.186;6.926;2023-03-31T04:18:52;19.36;54.80
65239;SHT30;51827;51.186;6.926;2023-03-31T04:19:52;19.36;54.82
65239;SHT30;51827;51.186;6.926;2023-03-31T04:20:53;19.34;54.81
65239;SHT30;51827;51.186;6.926;2023-03-31T04:21:53;19.34;54.79
65239;SHT30;51827;51.186;6.926;2023-03-31T04:22:53;19.34;54.74
65239;SHT30;51827;51.186;6.926;2023-03-31T04:23:54;19.33;54.77
65239;SHT30;51827;51.186;6.926;2023-03-31T04:24:54;19.36;54.74
65239;SHT30;51827;51.186;6.926;2023-03-31T04:25:54;19.33;54.76
65239;SHT30;51827;51.186;6.926;2023-03-31T04:26:56;19.36;54.75
65239;SHT30;51827;51.186;6.926;2023-03-31T04:27:56;19.37;54.72
65239;SHT30;51827;51.186;6.926;2023-03-31T04:28:57;19.36;54.74
65239;SHT30;51827;51.186;6.926;2023-03-31T04:29:57;19.37;54.74
65239;SHT30;51827;51.186;6.926;2023-03-31T04:30:57;19.36;54.71
65239;SHT30;51827;51.186;6.926;2023-03-31T04:31:58;19.36;54.73
65239;SHT30;51827;51.186;6.926;2023-03-31T04:33:01;19.37;54.70
65239;SHT30;51827;51.186;6.926;2023-03-31T04:34:01;19.37;54.72
65239;SHT30;51827;51.186;6.926;2023-03-31T04:35:01;19.36;54.75
65239;SHT30;51827;51.186;6.926;2023-03-31T04:36:02;19.34;54.76
65239;SHT30;51827;51.186;6.926;2023-03-31T04:37:02;19.36;54.78
65239;SHT30;51827;51.186;6.926;2023-03-31T04:38:03;19.36;54.93
65239;SHT30;51827;51.186;6.926;2023-03-31T04:39:03;19.36;54.87
65239;SHT30;51827;51.186;6.926;2023-03-31T04:40:03;19.37;54.91
65239;SHT30;51827;51.186;6.926;2023-03-31T04:41:04;19.36;54.87
65239;SHT30;51827;51.186;6.926;2023-03-31T04:42:04;19.39;54.83
65239;SHT30;51827;51.186;6.926;2023-03-31T04:43:04;19.36;54.88
65239;SHT30;51827;51.186;6.926;2023-03-31T04:44:05;19.36;54.87
65239;SHT30;51827;51.186;6.926;2023-03-31T04:45:05;19.34;54.88
65239;SHT30;51827;51.186;6.926;2023-03-31T04:46:06;19.36;54.93
65239;SHT30;51827;51.186;6.926;2023-03-31T04:47:06;19.34;54.92
65239;SHT30;51827;51.186;6.926;2023-03-31T04:48:06;19.34;54.91
65239;SHT30;51827;51.186;6.926;2023-03-31T04:49:07;19.37;54.93
65239;SHT30;51827;51.186;6.926;2023-03-31T04:50:08;19.37;54.94
65239;SHT30;51827;51.186;6.926;2023-03-31T04:51:08;19.36;54.94
65239;SHT30;51827;51.186;6.926;2023-03-31T04:52:08;19.33;54.91
65239;SHT30;51827;51.186;6.926;2023-03-31T04:53:09;19.36;54.95
65239;SHT30;51827;51.186;6.926;2023-03-31T04:54:09;19.36;55.03
65239;SHT30;51827;51.186;6.926;2023-03-31T04:55:10;19.37;55.59
65239;SHT30;51827;51.186;6.926;2023-03-31T04:56:11;19.37;55.81
65239;SHT30;51827;51.186;6.926;2023-03-31T04:57:12;19.34;55.99
65239;SHT30;51827;51.186;6.926;2023-03-31T04:58:12;19.39;56.10
65239;SHT30;51827;51.186;6.926;2023-03-31T04:59:12;19.37;56.16
65239;SHT30;51827;51.186;6.926;2023-03-31T05:00:13;19.36;56.26
65239;SHT30;51827;51.186;6.926;2023-03-31T05:01:13;19.39;56.28
65239;SHT30;51827;51.186;6.926;2023-03-31T05:02:14;19.39;56.26
65239;SHT30;51827;51.186;6.926;2023-03-31T05:03:14;19.39;56.20
65239;SHT30;51827;51.186;6.926;2023-03-31T05:04:14;19.36;56.17
65239;SHT30;51827;51.186;6.926;2023-03-31T05:05:15;19.40;56.07
65239;SHT30;51827;51.186;6.926;2023-03-31T05:06:15;19.39;56.02
65239;SHT30;51827;51.186;6.926;2023-03-31T05:07:17;19.37;56.02
65239;SHT30;51827;51.186;6.926;2023-03-31T05:08:17;19.37;56.14
65239;SHT30;51827;51.186;6.926;2023-03-31T05:09:17;19.39;56.14
65239;SHT30;51827;51.186;6.926;2023-03-31T05:10:18;19.37;56.14
65239;SHT30;51827;51.186;6.926;2023-03-31T05:11:18;19.37;56.09
65239;SHT30;51827;51.186;6.926;2023-03-31T05:12:18;19.40;56.07
65239;SHT30;51827;51.186;6.926;2023-03-31T05:13:18;19.40;56.02
65239;SHT30;51827;51.186;6.926;2023-03-31T05:14:19;19.39;56.01
65239;SHT30;51827;51.186;6.926;2023-03-31T05:15:19;19.37;56.09
65239;SHT30;51827;51.186;6.926;2023-03-31T05:16:19;19.39;56.07
65239;SHT30;51827;51.186;6.926;2023-03-31T05:17:20;19.39;56.06
65239;SHT30;51827;51.186;6.926;2023-03-31T05:18:20;19.39;56.03
65239;SHT30;51827;51.186;6.926;2023-03-31T05:19:20;19.39;56.01
65239;SHT30;51827;51.186;6.926;2023-03-31T05:20:20;19.39;56.02
65239;SHT30;51827;51.186;6.926;2023-03-31T05:21:21;19.42;56.04
65239;SHT30;51827;51.186;6.926;2023-03-31T05:22:21;19.40;56.02
65239;SHT30;51827;51.186;6.926;2023-03-31T05:23:21;19.42;56.01
65239;SHT30;51827;51.186;6.926;2023-03-31T05:24:22;19.40;56.03
65239;SHT30;51827;51.186;6.926;2023-03-31T05:25:22;19.40;55.95
65239;SHT30;51827;51.186;6.926;2023-03-31T05:26:23;19.39;55.91
65239;SHT30;51827;51.186;6.926;2023-03-31T05:27:24;19.40;55.94
65239;SHT30;51827;51.186;6.926;2023-03-31T05:28:24;19.40;55.94
65239;SHT30;51827;51.186;6.926;2023-03-31T05:29:24;19.39;55.89
65239;SHT30;51827;51.186;6.926;2023-03-31T05:30:25;19.42;55.91
65239;SHT30;51827;51.186;6.926;2023-03-31T05:31:25;19.40;55.92
65239;SHT30;51827;51.186;6.926;2023-03-31T05:32:26;19.39;55.91
65239;SHT30;51827;51.186;6.926;2023-03-31T05:33:27;19.39;55.94
65239;SHT30;51827;51.186;6.926;2023-03-31T05:34:27;19.40;55.88
65239;SHT30;51827;51.186;6.926;2023-03-31T05:35:27;19.40;55.87
65239;SHT30;51827;51.186;6.926;2023-03-31T05:36:28;19.43;55.87
65239;SHT30;51827;51.186;6.926;2023-03-31T05:37:28;19.40;55.82
65239;SHT30;51827;51.186;6.926;2023-03-31T05:38:28;19.39;55.84
65239;SHT30;51827;51.186;6.926;2023-03-31T05:39:28;19.42;55.84
65239;SHT30;51827;51.186;6.926;2023-03-31T05:40:29;19.43;55.79
65239;SHT30;51827;51.186;6.926;2023-03-31T05:41:29;19.39;55.82
65239;SHT30;51827;51.186;6.926;2023-03-31T05:42:29;19.40;55.80
65239;SHT30;51827;51.186;6.926;2023-03-31T05:43:29;19.39;55.84
65239;SHT30;51827;51.186;6.926;2023-03-31T05:44:30;19.37;55.79
65239;SHT30;51827;51.186;6.926;2023-03-31T05:45:30;19.40;55.81
65239;SHT30;51827;51.186;6.926;2023-03-31T05:46:31;19.39;55.81
65239;SHT30;51827;51.186;6.926;2023-03-31T05:47:31;19.40;55.82
65239;SHT30;51827;51.186;6.926;2023-03-31T05:48:31;19.43;55.75
65239;SHT30;51827;51.186;6.926;2023-03-31T05:49:31;19.39;55.77
65239;SHT30;51827;51.186;6.926;2023-03-31T05:50:32;19.40;55.76
65239;SHT30;51827;51.186;6.926;2023-03-31T05:51:33;19.37;55.74
65239;SHT30;51827;51.186;6.926;2023-03-31T05:52:33;19.40;55.78
65239;SHT30;51827;51.186;6.926;2023-03-31T05:53:34;19.39;55.74
65239;SHT30;51827;51.186;6.926;2023-03-31T05:54:34;19.42;55.78
65239;SHT30;51827;51.186;6.926;2023-03-31T05:55:35;19.39;55.71
65239;SHT30;51827;51.186;6.926;2023-03-31T05:56:35;19.39;55.68
65239;SHT30;51827;51.186;6.926;2023-03-31T05:57:35;19.40;55.68
65239;SHT30;51827;51.186;6.926;2023-03-31T05:58:36;19.39;55.72
65239;SHT30;51827;51.186;6.926;2023-03-31T05:59:37;19.39;55.66
65239;SHT30;51827;51.186;6.926;2023-03-31T06:00:37;19.39;55.67
65239;SHT30;51827;51.186;6.926;2023-03-31T06:01:37;19.39;55.63
65239;SHT30;51827;51.186;6.926;2023-03-31T06:02:37;19.40;55.63
65239;SHT30;51827;51.186;6.926;2023-03-31T06:03:40;19.40;55.64
65239;SHT30;51827;51.186;6.926;2023-03-31T06:04:40;19.40;55.66
65239;SHT30;51827;51.186;6.926;2023-03-31T06:05:46;19.40;55.60
65239;SHT30;51827;51.186;6.926;2023-03-31T06:06:46;19.37;55.60
65239;SHT30;51827;51.186;6.926;2023-03-31T06:07:47;19.39;55.64
65239;SHT30;51827;51.186;6.926;2023-03-31T06:08:48;19.39;55.60
65239;SHT30;51827;51.186;6.926;2023-03-31T06:09:48;19.40;55.57
65239;SHT30;51827;51.186;6.926;2023-03-31T06:10:49;19.40;55.59
65239;SHT30;51827;51.186;6.926;2023-03-31T06:11:49;19.39;55.55
65239;SHT30;51827;51.186;6.926;2023-03-31T06:12:49;19.39;55.58
65239;SHT30;51827;51.186;6.926;2023-03-31T06:13:50;19.40;55.53
65239;SHT30;51827;51.186;6.926;2023-03-31T06:14:50;19.39;55.59
65239;SHT30;51827;51.186;6.926;2023-03-31T06:15:58;19.39;55.51
65239;SHT30;51827;51.186;6.926;2023-03-31T06:16:58;19.39;55.53
65239;SHT30;51827;51.186;6.926;2023-03-31T06:17:59;19.40;55.50
65239;SHT30;51827;51.186;6.926;2023-03-31T06:18:59;19.42;55.51
65239;SHT30;51827;51.186;6.926;2023-03-31T06:19:59;19.39;55.47
65239;SHT30;51827;51.186;6.926;2023-03-31T06:21:00;19.39;55.50
65239;SHT30;51827;51.186;6.926;2023-03-31T06:22:00;19.40;55.50
65239;SHT30;51827;51.186;6.926;2023-03-31T06:23:01;19.39;55.47
65239;SHT30;51827;51.186;6.926;2023-03-31T06:24:01;19.39;55.50
65239;SHT30;51827;51.186;6.926;2023-03-31T06:25:01;19.36;55.48
65239;SHT30;51827;51.186;6.926;2023-03-31T06:26:05;19.37;55.52
65239;SHT30;51827;51.186;6.926;2023-03-31T06:27:05;19.39;55.50
65239;SHT30;51827;51.186;6.926;2023-03-31T06:28:06;19.39;55.46
65239;SHT30;51827;51.186;6.926;2023-03-31T06:29:06;19.39;55.48
65239;SHT30;51827;51.186;6.926;2023-03-31T06:30:07;19.39;55.45
65239;SHT30;51827;51.186;6.926;2023-03-31T06:31:10;19.39;55.45
65239;SHT30;51827;51.186;6.926;2023-03-31T06:32:10;19.37;55.40
65239;SHT30;51827;51.186;6.926;2023-03-31T06:33:10;19.40;55.42
65239;SHT30;51827;51.186;6.926;2023-03-31T06:34:11;19.40;55.42
65239;SHT30;51827;51.186;6.926;2023-03-31T06:35:11;19.39;55.41
65239;SHT30;51827;51.186;6.926;2023-03-31T06:36:14;19.37;55.40
65239;SHT30;51827;51.186;6.926;2023-03-31T06:37:14;19.37;55.39
65239;SHT30;51827;51.186;6.926;2023-03-31T06:38:14;19.39;55.38
65239;SHT30;51827;51.186;6.926;2023-03-31T06:39:15;19.39;55.37
65239;SHT30;51827;51.186;6.926;2023-03-31T06:40:15;19.42;55.36
65239;SHT30;51827;51.186;6.926;2023-03-31T06:41:16;19.39;55.38
65239;SHT30;51827;51.186;6.926;2023-03-31T06:42:16;19.39;55.30
65239;SHT30;51827;51.186;6.926;2023-03-31T06:43:17;19.40;55.33
65239;SHT30;51827;51.186;6.926;2023-03-31T06:44:17;19.43;55.32
65239;SHT30;51827;51.186;6.926;2023-03-31T06:45:17;19.40;55.33
65239;SHT30;51827;51.186;6.926;2023-03-31T06:46:17;19.37;55.33
65239;SHT30;51827;51.186;6.926;2023-03-31T06:47:18;19.40;55.33
65239;SHT30;51827;51.186;6.926;2023-03-31T06:48:18;19.37;55.33
65239;SHT30;51827;51.186;6.926;2023-03-31T06:49:18;19.40;55.31
65239;SHT30;51827;51.186;6.926;2023-03-31T06:50:19;19.39;55.34
65239;SHT30;51827;51.186;6.926;2023-03-31T06:51:19;19.40;55.30
65239;SHT30;51827;51.186;6.926;2023-03-31T06:52:19;19.39;55.31
65239;SHT30;51827;51.186;6.926;2023-03-31T06:53:20;19.39;55.30
65239;SHT30;51827;51.186;6.926;2023-03-31T06:54:20;19.42;55.31
65239;SHT30;51827;51.186;6.926;2023-03-31T06:55:21;19.40;55.28
65239;SHT30;51827;51.186;6.926;2023-03-31T06:56:21;19.39;55.29
65239;SHT30;51827;51.186;6.926;2023-03-31T06:57:21;19.39;55.24
65239;SHT30;51827;51.186;6.926;2023-03-31T06:58:21;19.40;55.28
65239;SHT30;51827;51.186;6.926;2023-03-31T06:59:22;19.40;55.25
65239;SHT30;51827;51.186;6.926;2023-03-31T07:00:22;19.40;55.29
65239;SHT30;51827;51.186;6.926;2023-03-31T07:01:22;19.42;55.23
65239;SHT30;51827;51.186;6.926;2023-03-31T07:02:23;19.40;55.22
65239;SHT30;51827;51.186;6.926;2023-03-31T07:03:23;19.37;55.27
65239;SHT30;51827;51.186;6.926;2023-03-31T07:04:23;19.39;55.24
65239;SHT30;51827;51.186;6.926;2023-03-31T07:05:24;19.39;55.22
65239;SHT30;51827;51.186;6.926;2023-03-31T07:06:24;19.40;55.23
65239;SHT30;51827;51.186;6.926;2023-03-31T07:07:24;19.42;55.24
65239;SHT30;51827;51.186;6.926;2023-03-31T07:08:25;19.39;55.20
65239;SHT30;51827;51.186;6.926;2023-03-31T07:09:25;19.39;55.24
65239;SHT30;51827;51.186;6.926;2023-03-31T07:10:28;19.37;55.17
65239;SHT30;51827;51.186;6.926;2023-03-31T07:11:28;19.39;55.23
65239;SHT30;51827;51.186;6.926;2023-03-31T07:12:31;19.40;55.22
65239;SHT30;51827;51.186;6.926;2023-03-31T07:13:32;19.39;55.21